sensor_id;sensor_type;location;lat;lon;timestamp;temperature;humidity
18998;DHT22;9632;51.018;4.284;2024-01-30T00:01:29;12.10;99.90
18998;DHT22;9632;51.018;4.284;2024-01-30T00:03:55;12.10;99.90
18998;DHT22;9632;51.018;4.284;2024-01-30T00:06:21;12.20;99.90
18998;DHT22;9632;51.018;4.284;2024-01-30T00:08:47;12.20;99.90
18998;DHT22;9632;51.018;4.284;2024-01-30T00:11:15;12.30;99.90
18998;DHT22;9632;51.018;4.284;2024-01-30T00:13:41;12.30;99.90
18998;DHT22;9632;51.018;4.284;2024-01-30T00:16:07;12.30;99.90
18998;DHT22;9632;51.018;4.284;2024-01-30T00:18:33;12.30;99.90
18998;DHT22;9632;51.018;4.284;2024-01-30T00:20:59;12.20;99.90
18998;DHT22;9632;51.018;4.284;2024-01-30T00:23:24;12.30;99.90
18998;DHT22;9632;51.018;4.284;2024-01-30T00:25:50;12.30;99.90
18998;DHT22;9632;51.018;4.284;2024-01-30T00:28:16;12.20;99.90
18998;DHT22;9632;51.018;4.284;2024-01-30T00:30:42;12.20;99.90
18998;DHT22;9632;51.018;4.284;2024-01-30T00:33:09;12.20;99.90
18998;DHT22;9632;51.018;4.284;2024-01-30T00:35:34;12.30;99.90
18998;DHT22;9632;51.018;4.284;2024-01-30T00:38:00;12.30;99.90
18998;DHT22;9632;51.018;4.284;2024-01-30T00:40:26;12.20;99.90
18998;DHT22;9632;51.018;4.284;2024-01-30T00:42:52;12.30;99.90
18998;DHT22;9632;51.018;4.284;2024-01-30T00:45:18;12.20;99.90
18998;DHT22;9632;51.018;4.284;2024-01-30T00:47:44;12.20;99.90
18998;DHT22;9632;51.018;4.284;2024-01-30T00:50:10;12.20;99.90
18998;DHT22;9632;51.018;4.284;2024-01-30T00:52:36;12.20;99.90
18998;DHT22;9632;51.018;4.284;2024-01-30T00:55:02;12.20;99.90
18998;DHT22;9632;51.018;4.284;2024-01-30T00:57:29;12.20;99.90
18998;DHT22;9632;51.018;4.284;2024-01-30T00:59:54;12.20;99.90
18998;DHT22;9632;51.018;4.284;2024-01-30T01:02:20;12.20;99.90
18998;DHT22;9632;51.018;4.284;2024-01-30T01:04:46;12.30;99.90
18998;DHT22;9632;51.018;4.284;2024-01-30T01:07:11;12.20;99.90
18998;DHT22;9632;51.018;4.284;2024-01-30T01:09:37;12.20;99.90
18998;DHT22;9632;51.018;4.284;2024-01-30T01:12:03;12.20;99.90
18998;DHT22;9632;51.018;4.284;2024-01-30T01:14:30;12.30;99.90
18998;DHT22;9632;51.018;4.284;2024-01-30T01:16:55;12.30;99.90
18998;DHT22;9632;51.018;4.284;2024-01-30T01:19:21;12.20;99.90
18998;DHT22;9632;51.018;4.284;2024-01-30T01:21:47;12.30;99.90
18998;DHT22;9632;51.018;4.284;2024-01-30T01:24:13;12.30;99.90
18998;DHT22;9632;51.018;4.284;2024-01-30T01:26:39;12.20;99.90
18998;DHT22;9632;51.018;4.284;2024-01-30T01:29:06;12.20;99.90
18998;DHT22;9632;51.018;4.284;2024-01-30T01:31:36;12.20;99.90
18998;DHT22;9632;51.018;4.284;2024-01-30T01:34:05;12.20;99.90
18998;DHT22;9632;51.018;4.284;2024-01-30T01:36:31;12.20;99.90
18998;DHT22;9632;51.018;4.284;2024-01-30T01:38:57;12.20;99.90
18998;DHT22;9632;51.018;4.284;2024-01-30T01:41:23;12.10;99.90
18998;DHT22;9632;51.018;4.284;2024-01-30T01:43:48;12.10;99.90
18998;DHT22;9632;51.018;4.284;2024-01-30T01:46:14;12.20;99.90
18998;DHT22;9632;51.018;4.284;2024-01-30T01:48:41;12.20;99.90
18998;DHT22;9632;51.018;4.284;2024-01-30T01:51:08;12.20;99.90
18998;DHT22;9632;51.018;4.284;2024-01-30T01:53:35;12.20;99.90
18998;DHT22;9632;51.018;4.284;2024-01-30T01:56:01;12.10;99.90
18998;DHT22;9632;51.018;4.284;2024-01-30T01:58:27;12.10;99.90
18998;DHT22;9632;51.018;4.284;2024-01-30T02:00:55;12.10;99.90
18998;DHT22;9632;51.018;4.284;2024-01-30T02:03:21;12.10;99.90
18998;DHT22;9632;51.018;4.284;2024-01-30T02:05:47;12.10;99.90
18998;DHT22;9632;51.018;4.284;2024-01-30T02:08:13;12.10;99.90
18998;DHT22;9632;51.018;4.284;2024-01-30T02:10:39;12.10;99.90
18998;DHT22;9632;51.018;4.284;2024-01-30T02:13:04;12.10;99.90
18998;DHT22;9632;51.018;4.284;2024-01-30T02:15:30;12.20;99.90
18998;DHT22;9632;51.018;4.284;2024-01-30T02:17:56;12.10;99.90
18998;DHT22;9632;51.018;4.284;2024-01-30T02:20:24;12.10;99.90
18998;DHT22;9632;51.018;4.284;2024-01-30T02:22:52;12.10;99.90
18998;DHT22;9632;51.018;4.284;2024-01-30T02:25:18;12.00;99.90
18998;DHT22;9632;51.018;4.284;2024-01-30T02:27:43;12.00;99.90
18998;DHT22;9632;51.018;4.284;2024-01-30T02:30:10;12.00;99.90
18998;DHT22;9632;51.018;4.284;2024-01-30T02:32:36;12.00;99.90
18998;DHT22;9632;51.018;4.284;2024-01-30T02:35:02;12.00;99.90
18998;DHT22;9632;51.018;4.284;2024-01-30T02:37:27;12.00;99.90
18998;DHT22;9632;51.018;4.284;2024-01-30T02:39:53;12.00;99.90
18998;DHT22;9632;51.018;4.284;2024-01-30T02:42:19;12.00;99.90
18998;DHT22;9632;51.018;4.284;2024-01-30T02:44:44;12.00;99.90
18998;DHT22;9632;51.018;4.284;2024-01-30T02:47:10;12.00;99.90
18998;DHT22;9632;51.018;4.284;2024-01-30T02:49:35;12.10;99.90
18998;DHT22;9632;51.018;4.284;2024-01-30T02:52:01;12.10;99.90
18998;DHT22;9632;51.018;4.284;2024-01-30T02:54:27;12.10;99.90
18998;DHT22;9632;51.018;4.284;2024-01-30T02:56:52;12.10;99.90
18998;DHT22;9632;51.018;4.284;2024-01-30T02:59:18;12.20;99.90
18998;DHT22;9632;51.018;4.284;2024-01-30T03:01:44;12.20;99.90
18998;DHT22;9632;51.018;4.284;2024-01-30T03:04:10;12.10;99.90
18998;DHT22;9632;51.018;4.284;2024-01-30T03:06:36;12.10;99.90
18998;DHT22;9632;51.018;4.284;2024-01-30T03:09:02;12.10;99.90
18998;DHT22;9632;51.018;4.284;2024-01-30T03:11:28;12.10;99.90
18998;DHT22;9632;51.018;4.284;2024-01-30T03:13:54;12.20;99.90
18998;DHT22;9632;51.018;4.284;2024-01-30T03:16:19;12.20;99.90
18998;DHT22;9632;51.018;4.284;2024-01-30T03:18:45;12.20;99.90
18998;DHT22;9632;51.018;4.284;2024-01-30T03:21:11;12.20;99.90
18998;DHT22;9632;51.018;4.284;2024-01-30T03:23:36;12.20;99.90
18998;DHT22;9632;51.018;4.284;2024-01-30T03:26:02;12.20;99.90
18998;DHT22;9632;51.018;4.284;2024-01-30T03:28:29;12.20;99.90
18998;DHT22;9632;51.018;4.284;2024-01-30T03:30:55;12.20;99.90
18998;DHT22;9632;51.018;4.284;2024-01-30T03:33:21;12.20;99.90
18998;DHT22;9632;51.018;4.284;2024-01-30T03:35:46;12.20;99.90
18998;DHT22;9632;51.018;4.284;2024-01-30T03:38:12;12.20;99.90
18998;DHT22;9632;51.018;4.284;2024-01-30T03:40:38;12.20;99.90
18998;DHT22;9632;51.018;4.284;2024-01-30T03:43:03;12.30;99.90
18998;DHT22;9632;51.018;4.284;2024-01-30T03:45:30;12.30;99.90
18998;DHT22;9632;51.018;4.284;2024-01-30T03:47:56;12.30;99.90
18998;DHT22;9632;51.018;4.284;2024-01-30T03:50:21;12.40;99.90
18998;DHT22;9632;51.018;4.284;2024-01-30T03:52:47;12.30;99.90
18998;DHT22;9632;51.018;4.284;2024-01-30T03:55:13;12.30;99.90
18998;DHT22;9632;51.018;4.284;2024-01-30T03:57:38;12.30;99.90
18998;DHT22;9632;51.018;4.284;2024-01-30T04:00:04;12.30;99.90
18998;DHT22;9632;51.018;4.284;2024-01-30T04:02:30;12.40;99.90
18998;DHT22;9632;51.018;4.284;2024-01-30T04:04:56;12.40;99.90
18998;DHT22;9632;51.018;4.284;2024-01-30T04:07:21;12.40;99.90
18998;DHT22;9632;51.018;4.284;2024-01-30T04:09:47;12.40;99.90
18998;DHT22;9632;51.018;4.284;2024-01-30T04:12:13;12.40;99.90
18998;DHT22;9632;51.018;4.284;2024-01-30T04:14:39;12.30;99.90
18998;DHT22;9632;51.018;4.284;2024-01-30T04:17:05;12.30;99.90
18998;DHT22;9632;51.018;4.284;2024-01-30T04:19:30;12.30;99.90
18998;DHT22;9632;51.018;4.284;2024-01-30T04:21:56;12.30;99.90
18998;DHT22;9632;51.018;4.284;2024-01-30T04:24:22;12.30;99.90
18998;DHT22;9632;51.018;4.284;2024-01-30T04:26:47;12.30;99.90
18998;DHT22;9632;51.018;4.284;2024-01-30T04:29:13;12.30;99.90
18998;DHT22;9632;51.018;4.284;2024-01-30T04:31:38;12.30;99.90
18998;DHT22;9632;51.018;4.284;2024-01-30T04:34:04;12.30;99.90
18998;DHT22;9632;51.018;4.284;2024-01-30T04:36:30;12.30;99.90
18998;DHT22;9632;51.018;4.284;2024-01-30T04:38:55;12.30;99.90
18998;DHT22;9632;51.018;4.284;2024-01-30T04:41:21;12.20;99.90
18998;DHT22;9632;51.018;4.284;2024-01-30T04:43:46;12.20;99.90
18998;DHT22;9632;51.018;4.284;2024-01-30T04:46:12;12.20;99.90
18998;DHT22;9632;51.018;4.284;2024-01-30T04:48:38;12.10;99.90
18998;DHT22;9632;51.018;4.284;2024-01-30T04:51:03;12.20;99.90
18998;DHT22;9632;51.018;4.284;2024-01-30T04:53:30;12.30;99.90
18998;DHT22;9632;51.018;4.284;2024-01-30T04:55:56;12.30;99.90
18998;DHT22;9632;51.018;4.284;2024-01-30T04:58:22;12.30;99.90
18998;DHT22;9632;51.018;4.284;2024-01-30T05:00:47;12.30;99.90
18998;DHT22;9632;51.018;4.284;2024-01-30T05:03:17;12.30;99.90
18998;DHT22;9632;51.018;4.284;2024-01-30T05:05:43;12.20;99.90
18998;DHT22;9632;51.018;4.284;2024-01-30T05:08:08;12.20;99.90
18998;DHT22;9632;51.018;4.284;2024-01-30T05:10:34;12.30;99.90
18998;DHT22;9632;51.018;4.284;2024-01-30T05:13:00;12.30;99.90
18998;DHT22;9632;51.018;4.284;2024-01-30T05:15:25;12.40;99.90
18998;DHT22;9632;51.018;4.284;2024-01-30T05:17:51;12.40;99.90
18998;DHT22;9632;51.018;4.284;2024-01-30T05:20:17;12.40;99.90
18998;DHT22;9632;51.018;4.284;2024-01-30T05:22:43;12.40;99.90
18998;DHT22;9632;51.018;4.284;2024-01-30T05:25:11;12.40;99.90
18998;DHT22;9632;51.018;4.284;2024-01-30T05:27:37;12.40;99.90
18998;DHT22;9632;51.018;4.284;2024-01-30T05:30:04;12.30;99.90
18998;DHT22;9632;51.018;4.284;2024-01-30T05:32:30;12.40;99.90
18998;DHT22;9632;51.018;4.284;2024-01-30T05:34:55;12.40;99.90
18998;DHT22;9632;51.018;4.284;2024-01-30T05:37:21;12.30;99.90
18998;DHT22;9632;51.018;4.284;2024-01-30T05:39:46;12.30;99.90
18998;DHT22;9632;51.018;4.284;2024-01-30T05:42:12;12.30;99.90
18998;DHT22;9632;51.018;4.284;2024-01-30T05:44:38;12.30;99.90
18998;DHT22;9632;51.018;4.284;2024-01-30T05:47:04;12.30;99.90
18998;DHT22;9632;51.018;4.284;2024-01-30T05:49:29;12.30;99.90
18998;DHT22;9632;51.018;4.284;2024-01-30T05:51:55;12.30;99.90
18998;DHT22;9632;51.018;4.284;2024-01-30T05:54:21;12.30;99.90
18998;DHT22;9632;51.018;4.284;2024-01-30T05:56:46;12.40;99.90
18998;DHT22;9632;51.018;4.284;2024-01-30T05:59:12;12.40;99.90
18998;DHT22;9632;51.018;4.284;2024-01-30T06:01:38;12.40;99.90
18998;DHT22;9632;51.018;4.284;2024-01-30T06:04:03;12.30;99.90
18998;DHT22;9632;51.018;4.284;2024-01-30T06:06:29;12.40;99.90
18998;DHT22;9632;51.018;4.284;2024-01-30T06:08:55;12.30;99.90
18998;DHT22;9632;51.018;4.284;2024-01-30T06:11:21;12.30;99.90
18998;DHT22;9632;51.018;4.284;2024-01-30T06:13:47;12.30;99.90
18998;DHT22;9632;51.018;4.284;2024-01-30T06:16:12;12.30;99.90
18998;DHT22;9632;51.018;4.284;2024-01-30T06:18:38;12.40;99.90
18998;DHT22;9632;51.018;4.284;2024-01-30T06:21:04;12.40;99.90
18998;DHT22;9632;51.018;4.284;2024-01-30T06:23:30;12.30;99.90
18998;DHT22;9632;51.018;4.284;2024-01-30T06:25:56;12.30;99.90
18998;DHT22;9632;51.018;4.284;2024-01-30T06:28:21;12.20;99.90
18998;DHT22;9632;51.018;4.284;2024-01-30T06:30:47;12.20;99.90
18998;DHT22;9632;51.018;4.284;2024-01-30T06:33:13;12.20;99.90
18998;DHT22;9632;51.018;4.284;2024-01-30T06:35:40;12.10;99.90
18998;DHT22;9632;51.018;4.284;2024-01-30T06:38:06;12.20;99.90
18998;DHT22;9632;51.018;4.284;2024-01-30T06:40:31;12.20;99.90
18998;DHT22;9632;51.018;4.284;2024-01-30T06:42:57;12.10;99.90
18998;DHT22;9632;51.018;4.284;2024-01-30T06:45:23;12.20;99.90
18998;DHT22;9632;51.018;4.284;2024-01-30T06:47:48;12.20;99.90
18998;DHT22;9632;51.018;4.284;2024-01-30T06:50:14;12.30;99.90
18998;DHT22;9632;51.018;4.284;2024-01-30T06:52:40;12.30;99.90
18998;DHT22;9632;51.018;4.284;2024-01-30T06:55:05;12.30;99.90
18998;DHT22;9632;51.018;4.284;2024-01-30T06:57:31;12.30;99.90
18998;DHT22;9632;51.018;4.284;2024-01-30T06:59:57;12.30;99.90
18998;DHT22;9632;51.018;4.284;2024-01-30T07:02:23;12.30;99.90
18998;DHT22;9632;51.018;4.284;2024-01-30T07:04:48;12.30;99.90
18998;DHT22;9632;51.018;4.284;2024-01-30T07:07:14;12.30;99.90
18998;DHT22;9632;51.018;4.284;2024-01-30T07:09:41;12.40;99.90
18998;DHT22;9632;51.018;4.284;2024-01-30T07:12:06;12.40;99.90
18998;DHT22;9632;51.018;4.284;2024-01-30T07:14:33;12.40;99.90
18998;DHT22;9632;51.018;4.284;2024-01-30T07:16:58;12.30;99.90
18998;DHT22;9632;51.018;4.284;2024-01-30T07:19:24;12.30;99.90
18998;DHT22;9632;51.018;4.284;2024-01-30T07:21:49;12.30;99.90
18998;DHT22;9632;51.018;4.284;2024-01-30T07:24:15;12.30;99.90
18998;DHT22;9632;51.018;4.284;2024-01-30T07:26:41;12.30;99.90
18998;DHT22;9632;51.018;4.284;2024-01-30T07:29:06;12.40;99.90
18998;DHT22;9632;51.018;4.284;2024-01-30T07:31:32;12.30;99.90
18998;DHT22;9632;51.018;4.284;2024-01-30T07:33:58;12.30;99.90
18998;DHT22;9632;51.018;4.284;2024-01-30T07:36:23;12.40;99.90
18998;DHT22;9632;51.018;4.284;2024-01-30T07:38:49;12.40;99.90
18998;DHT22;9632;51.018;4.284;2024-01-30T07:41:14;12.40;99.90
18998;DHT22;9632;51.018;4.284;2024-01-30T07:43:40;12.40;99.90
18998;DHT22;9632;51.018;4.284;2024-01-30T07:46:06;12.50;99.90
18998;DHT22;9632;51.018;4.284;2024-01-30T07:48:35;12.50;99.90
18998;DHT22;9632;51.018;4.284;2024-01-30T07:51:00;12.50;99.90
18998;DHT22;9632;51.018;4.284;2024-01-30T07:53:26;12.50;99.90
18998;DHT22;9632;51.018;4.284;2024-01-30T07:55:52;12.50;99.90
18998;DHT22;9632;51.018;4.284;2024-01-30T07:58:18;12.50;99.90
18998;DHT22;9632;51.018;4.284;2024-01-30T08:00:44;12.60;99.90
18998;DHT22;9632;51.018;4.284;2024-01-30T08:03:10;12.60;99.90
18998;DHT22;9632;51.018;4.284;2024-01-30T08:05:36;12.60;99.90
18998;DHT22;9632;51.018;4.284;2024-01-30T08:08:02;12.60;99.90
18998;DHT22;9632;51.018;4.284;2024-01-30T08:10:27;12.60;99.90
18998;DHT22;9632;51.018;4.284;2024-01-30T08:12:53;12.70;99.90
18998;DHT22;9632;51.018;4.284;2024-01-30T08:15:19;12.70;99.90
18998;DHT22;9632;51.018;4.284;2024-01-30T08:17:44;12.70;99.90
18998;DHT22;9632;51.018;4.284;2024-01-30T08:20:11;12.70;99.90
18998;DHT22;9632;51.018;4.284;2024-01-30T08:22:39;12.80;99.90
18998;DHT22;9632;51.018;4.284;2024-01-30T08:25:06;12.80;99.90
18998;DHT22;9632;51.018;4.284;2024-01-30T08:27:32;12.70;99.90
18998;DHT22;9632;51.018;4.284;2024-01-30T08:29:57;12.70;99.90
18998;DHT22;9632;51.018;4.284;2024-01-30T08:32:23;12.80;99.90
18998;DHT22;9632;51.018;4.284;2024-01-30T08:34:49;12.80;99.90
18998;DHT22;9632;51.018;4.284;2024-01-30T08:37:15;12.80;99.90
18998;DHT22;9632;51.018;4.284;2024-01-30T08:39:43;12.80;99.90
18998;DHT22;9632;51.018;4.284;2024-01-30T08:42:08;12.80;99.90
18998;DHT22;9632;51.018;4.284;2024-01-30T08:44:34;12.80;99.90
18998;DHT22;9632;51.018;4.284;2024-01-30T08:47:00;12.80;99.90
18998;DHT22;9632;51.018;4.284;2024-01-30T08:49:25;12.80;99.90
18998;DHT22;9632;51.018;4.284;2024-01-30T08:51:51;12.80;99.90
18998;DHT22;9632;51.018;4.284;2024-01-30T08:54:16;12.80;99.90
18998;DHT22;9632;51.018;4.284;2024-01-30T08:56:43;12.80;99.90
18998;DHT22;9632;51.018;4.284;2024-01-30T08:59:08;12.80;99.90
18998;DHT22;9632;51.018;4.284;2024-01-30T09:01:34;12.80;99.90
18998;DHT22;9632;51.018;4.284;2024-01-30T09:03:59;12.90;99.90
18998;DHT22;9632;51.018;4.284;2024-01-30T09:06:25;12.80;99.90
18998;DHT22;9632;51.018;4.284;2024-01-30T09:08:53;12.90;99.90
18998;DHT22;9632;51.018;4.284;2024-01-30T09:11:19;12.90;99.90
18998;DHT22;9632;51.018;4.284;2024-01-30T09:13:44;12.90;99.90
18998;DHT22;9632;51.018;4.284;2024-01-30T09:16:10;13.00;99.90
18998;DHT22;9632;51.018;4.284;2024-01-30T09:18:36;13.00;99.90
18998;DHT22;9632;51.018;4.284;2024-01-30T09:21:01;12.90;99.90
18998;DHT22;9632;51.018;4.284;2024-01-30T09:23:28;12.90;99.90
18998;DHT22;9632;51.018;4.284;2024-01-30T09:25:54;12.90;99.90
18998;DHT22;9632;51.018;4.284;2024-01-30T09:28:20;12.90;99.90
18998;DHT22;9632;51.018;4.284;2024-01-30T09:30:46;12.90;99.90
18998;DHT22;9632;51.018;4.284;2024-01-30T09:33:11;12.90;99.90
18998;DHT22;9632;51.018;4.284;2024-01-30T09:35:37;12.90;99.90
18998;DHT22;9632;51.018;4.284;2024-01-30T09:38:03;12.90;99.90
18998;DHT22;9632;51.018;4.284;2024-01-30T09:40:29;12.90;99.90
18998;DHT22;9632;51.018;4.284;2024-01-30T09:42:55;12.90;99.90
18998;DHT22;9632;51.018;4.284;2024-01-30T09:45:24;12.90;99.90
18998;DHT22;9632;51.018;4.284;2024-01-30T09:47:50;12.90;99.90
18998;DHT22;9632;51.018;4.284;2024-01-30T09:50:17;13.00;99.90
18998;DHT22;9632;51.018;4.284;2024-01-30T09:52:46;13.00;99.90
18998;DHT22;9632;51.018;4.284;2024-01-30T09:55:12;13.10;99.90
18998;DHT22;9632;51.018;4.284;2024-01-30T09:57:38;13.20;99.90
18998;DHT22;9632;51.018;4.284;2024-01-30T10:00:05;13.20;99.90
18998;DHT22;9632;51.018;4.284;2024-01-30T10:02:34;13.30;99.90
18998;DHT22;9632;51.018;4.284;2024-01-30T10:05:01;13.30;99.90
18998;DHT22;9632;51.018;4.284;2024-01-30T10:07:26;13.30;99.90
18998;DHT22;9632;51.018;4.284;2024-01-30T10:09:53;13.30;99.90
18998;DHT22;9632;51.018;4.284;2024-01-30T10:12:19;13.30;99.90
18998;DHT22;9632;51.018;4.284;2024-01-30T10:14:44;13.30;99.90
18998;DHT22;9632;51.018;4.284;2024-01-30T10:17:11;13.30;99.90
18998;DHT22;9632;51.018;4.284;2024-01-30T10:19:38;13.40;99.90
18998;DHT22;9632;51.018;4.284;2024-01-30T10:22:04;13.40;99.90
18998;DHT22;9632;51.018;4.284;2024-01-30T10:24:30;13.50;99.90
18998;DHT22;9632;51.018;4.284;2024-01-30T10:26:56;13.50;99.90
18998;DHT22;9632;51.018;4.284;2024-01-30T10:29:22;13.40;99.90
18998;DHT22;9632;51.018;4.284;2024-01-30T10:32:01;13.40;99.90
18998;DHT22;9632;51.018;4.284;2024-01-30T10:34:27;13.40;99.90
18998;DHT22;9632;51.018;4.284;2024-01-30T10:39:32;13.50;99.90
18998;DHT22;9632;51.018;4.284;2024-01-30T10:42:04;13.50;99.90
18998;DHT22;9632;51.018;4.284;2024-01-30T10:44:37;13.50;99.90
18998;DHT22;9632;51.018;4.284;2024-01-30T10:47:07;13.50;99.90
18998;DHT22;9632;51.018;4.284;2024-01-30T10:49:34;13.30;99.90
18998;DHT22;9632;51.018;4.284;2024-01-30T10:52:00;13.30;99.90
18998;DHT22;9632;51.018;4.284;2024-01-30T10:54:26;13.20;99.90
18998;DHT22;9632;51.018;4.284;2024-01-30T10:56:53;13.10;99.90
18998;DHT22;9632;51.018;4.284;2024-01-30T10:59:19;13.00;99.90
18998;DHT22;9632;51.018;4.284;2024-01-30T11:01:45;13.00;99.90
18998;DHT22;9632;51.018;4.284;2024-01-30T11:04:11;12.90;99.90
18998;DHT22;9632;51.018;4.284;2024-01-30T11:06:41;12.80;99.90
18998;DHT22;9632;51.018;4.284;2024-01-30T11:09:11;12.80;99.90
18998;DHT22;9632;51.018;4.284;2024-01-30T11:11:57;12.80;99.90
18998;DHT22;9632;51.018;4.284;2024-01-30T11:14:29;12.80;99.90
18998;DHT22;9632;51.018;4.284;2024-01-30T11:16:59;12.80;99.90
18998;DHT22;9632;51.018;4.284;2024-01-30T11:19:26;12.80;99.90
18998;DHT22;9632;51.018;4.284;2024-01-30T11:21:55;12.90;99.90
18998;DHT22;9632;51.018;4.284;2024-01-30T11:24:25;12.80;99.90
18998;DHT22;9632;51.018;4.284;2024-01-30T11:26:58;12.80;99.90
18998;DHT22;9632;51.018;4.284;2024-01-30T11:29:28;12.80;99.90
18998;DHT22;9632;51.018;4.284;2024-01-30T11:31:58;12.80;99.90
18998;DHT22;9632;51.018;4.284;2024-01-30T11:34:24;12.80;99.90
18998;DHT22;9632;51.018;4.284;2024-01-30T11:36:56;12.70;99.90
18998;DHT22;9632;51.018;4.284;2024-01-30T11:39:29;12.80;99.90
18998;DHT22;9632;51.018;4.284;2024-01-30T11:41:55;12.70;99.90
18998;DHT22;9632;51.018;4.284;2024-01-30T11:44:22;12.70;99.90
18998;DHT22;9632;51.018;4.284;2024-01-30T11:46:48;12.80;99.90
18998;DHT22;9632;51.018;4.284;2024-01-30T11:49:15;12.70;99.90
18998;DHT22;9632;51.018;4.284;2024-01-30T11:51:41;12.70;99.90
18998;DHT22;9632;51.018;4.284;2024-01-30T11:54:07;12.70;99.90
18998;DHT22;9632;51.018;4.284;2024-01-30T11:56:33;12.80;99.90
18998;DHT22;9632;51.018;4.284;2024-01-30T11:58:59;12.90;99.90
18998;DHT22;9632;51.018;4.284;2024-01-30T12:01:26;12.90;99.90
18998;DHT22;9632;51.018;4.284;2024-01-30T12:03:52;13.00;99.90
18998;DHT22;9632;51.018;4.284;2024-01-30T12:06:18;13.00;99.90
18998;DHT22;9632;51.018;4.284;2024-01-30T12:09:00;13.00;99.90
18998;DHT22;9632;51.018;4.284;2024-01-30T12:11:27;13.10;99.90
18998;DHT22;9632;51.018;4.284;2024-01-30T12:13:55;13.10;99.90
18998;DHT22;9632;51.018;4.284;2024-01-30T12:16:21;13.30;99.90
18998;DHT22;9632;51.018;4.284;2024-01-30T12:18:48;13.30;99.90
18998;DHT22;9632;51.018;4.284;2024-01-30T12:21:17;13.40;99.90
18998;DHT22;9632;51.018;4.284;2024-01-30T12:23:43;13.30;99.90
18998;DHT22;9632;51.018;4.284;2024-01-30T12:26:10;13.20;99.90
18998;DHT22;9632;51.018;4.284;2024-01-30T12:28:36;13.20;99.90
18998;DHT22;9632;51.018;4.284;2024-01-30T12:31:04;13.20;99.90
18998;DHT22;9632;51.018;4.284;2024-01-30T12:33:30;13.20;99.90
18998;DHT22;9632;51.018;4.284;2024-01-30T12:35:57;13.20;99.90
18998;DHT22;9632;51.018;4.284;2024-01-30T12:38:24;13.40;99.90
18998;DHT22;9632;51.018;4.284;2024-01-30T12:40:54;13.40;99.90
18998;DHT22;9632;51.018;4.284;2024-01-30T12:43:21;13.40;99.90
18998;DHT22;9632;51.018;4.284;2024-01-30T12:45:47;13.30;99.90
18998;DHT22;9632;51.018;4.284;2024-01-30T12:48:13;13.30;99.90
18998;DHT22;9632;51.018;4.284;2024-01-30T12:50:38;13.20;99.90
18998;DHT22;9632;51.018;4.284;2024-01-30T12:53:04;13.10;99.90
18998;DHT22;9632;51.018;4.284;2024-01-30T12:55:31;13.10;99.90
18998;DHT22;9632;51.018;4.284;2024-01-30T12:57:56;13.10;99.90
18998;DHT22;9632;51.018;4.284;2024-01-30T13:00:22;13.00;99.90
18998;DHT22;9632;51.018;4.284;2024-01-30T13:02:48;13.00;99.90
18998;DHT22;9632;51.018;4.284;2024-01-30T13:05:14;12.90;99.90
18998;DHT22;9632;51.018;4.284;2024-01-30T13:07:40;12.80;99.90
18998;DHT22;9632;51.018;4.284;2024-01-30T13:10:06;12.80;99.90
18998;DHT22;9632;51.018;4.284;2024-01-30T13:12:31;12.70;99.90
18998;DHT22;9632;51.018;4.284;2024-01-30T13:15:01;12.70;99.90
18998;DHT22;9632;51.018;4.284;2024-01-30T13:17:27;12.60;99.90
18998;DHT22;9632;51.018;4.284;2024-01-30T13:19:53;12.60;99.90
18998;DHT22;9632;51.018;4.284;2024-01-30T13:22:20;12.60;99.90
18998;DHT22;9632;51.018;4.284;2024-01-30T13:24:48;12.60;99.90
18998;DHT22;9632;51.018;4.284;2024-01-30T13:27:14;12.60;99.90
18998;DHT22;9632;51.018;4.284;2024-01-30T13:29:40;12.60;99.90
18998;DHT22;9632;51.018;4.284;2024-01-30T13:32:06;12.60;99.90
18998;DHT22;9632;51.018;4.284;2024-01-30T13:34:31;12.60;99.90
18998;DHT22;9632;51.018;4.284;2024-01-30T13:36:57;12.50;99.90
18998;DHT22;9632;51.018;4.284;2024-01-30T13:39:23;12.50;99.90
18998;DHT22;9632;51.018;4.284;2024-01-30T13:41:49;12.40;99.90
18998;DHT22;9632;51.018;4.284;2024-01-30T13:44:15;12.30;99.90
18998;DHT22;9632;51.018;4.284;2024-01-30T13:46:43;12.30;99.90
18998;DHT22;9632;51.018;4.284;2024-01-30T13:49:08;12.30;99.90
18998;DHT22;9632;51.018;4.284;2024-01-30T13:51:34;12.20;99.90
18998;DHT22;9632;51.018;4.284;2024-01-30T13:54:00;12.20;99.90
18998;DHT22;9632;51.018;4.284;2024-01-30T13:56:25;12.20;99.90
18998;DHT22;9632;51.018;4.284;2024-01-30T13:58:52;12.20;99.90
18998;DHT22;9632;51.018;4.284;2024-01-30T14:01:18;12.20;99.90
18998;DHT22;9632;51.018;4.284;2024-01-30T14:03:43;12.20;99.90
18998;DHT22;9632;51.018;4.284;2024-01-30T14:06:09;12.20;99.90
18998;DHT22;9632;51.018;4.284;2024-01-30T14:08:35;12.20;99.90
18998;DHT22;9632;51.018;4.284;2024-01-30T14:11:00;12.20;99.90
18998;DHT22;9632;51.018;4.284;2024-01-30T14:13:26;12.20;99.90
18998;DHT22;9632;51.018;4.284;2024-01-30T14:15:52;12.20;99.90
18998;DHT22;9632;51.018;4.284;2024-01-30T14:18:18;12.10;99.90
18998;DHT22;9632;51.018;4.284;2024-01-30T14:20:44;12.10;99.90
18998;DHT22;9632;51.018;4.284;2024-01-30T14:23:09;12.10;99.90
18998;DHT22;9632;51.018;4.284;2024-01-30T14:25:35;12.10;99.90
18998;DHT22;9632;51.018;4.284;2024-01-30T14:28:01;12.00;99.90
18998;DHT22;9632;51.018;4.284;2024-01-30T14:30:26;12.00;99.90
18998;DHT22;9632;51.018;4.284;2024-01-30T14:32:52;12.00;99.90
18998;DHT22;9632;51.018;4.284;2024-01-30T14:35:18;12.00;99.90
18998;DHT22;9632;51.018;4.284;2024-01-30T14:37:45;12.00;99.90
18998;DHT22;9632;51.018;4.284;2024-01-30T14:40:10;12.00;99.90
18998;DHT22;9632;51.018;4.284;2024-01-30T14:42:36;12.00;99.90
18998;DHT22;9632;51.018;4.284;2024-01-30T14:45:03;11.90;99.90
18998;DHT22;9632;51.018;4.284;2024-01-30T14:47:29;11.90;99.90
18998;DHT22;9632;51.018;4.284;2024-01-30T14:49:56;11.90;99.90
18998;DHT22;9632;51.018;4.284;2024-01-30T14:52:21;11.90;99.90
18998;DHT22;9632;51.018;4.284;2024-01-30T14:54:47;11.80;99.90
18998;DHT22;9632;51.018;4.284;2024-01-30T14:57:13;11.80;99.90
18998;DHT22;9632;51.018;4.284;2024-01-30T14:59:39;11.70;99.90
18998;DHT22;9632;51.018;4.284;2024-01-30T15:02:06;11.70;99.90
18998;DHT22;9632;51.018;4.284;2024-01-30T15:04:31;11.70;99.90
18998;DHT22;9632;51.018;4.284;2024-01-30T15:06:57;11.70;99.90
18998;DHT22;9632;51.018;4.284;2024-01-30T15:09:23;11.70;99.90
18998;DHT22;9632;51.018;4.284;2024-01-30T15:11:49;11.70;99.90
18998;DHT22;9632;51.018;4.284;2024-01-30T15:14:15;11.70;99.90
18998;DHT22;9632;51.018;4.284;2024-01-30T15:16:41;11.80;99.90
18998;DHT22;9632;51.018;4.284;2024-01-30T15:19:07;11.80;99.90
18998;DHT22;9632;51.018;4.284;2024-01-30T15:21:34;11.80;99.90
18998;DHT22;9632;51.018;4.284;2024-01-30T15:24:01;11.80;99.90
18998;DHT22;9632;51.018;4.284;2024-01-30T15:26:27;11.80;99.90
18998;DHT22;9632;51.018;4.284;2024-01-30T15:28:53;11.80;99.90
18998;DHT22;9632;51.018;4.284;2024-01-30T15:31:18;11.80;99.90
18998;DHT22;9632;51.018;4.284;2024-01-30T15:33:44;11.80;99.90
18998;DHT22;9632;51.018;4.284;2024-01-30T15:36:11;11.70;99.90
18998;DHT22;9632;51.018;4.284;2024-01-30T15:38:39;11.70;99.90
18998;DHT22;9632;51.018;4.284;2024-01-30T15:41:05;11.70;99.90